Disclaimer

Please do not use the information listed here in-flight or in-navigation, as they are not provided to us by the airports but are provided by volunteers, so they might be outdated.

Search


Regions


Airport information page

Radio informations:
Melbourne Center - 123.9 MHz
Common traffic adv. frequency (CTAF) - 126.7 MHz

Airport informations:
Latitude: 34° 56' 36.00" S
Longitude: 117° 48' 32.00" E
Elevation: 233 feet - 71 meters
Operating hours: N/A
Operating agency: Civil government, landing fees and diplomatic clearance may be required
Timezone: UTC+8
Fuel: Jet A1, without icing nhibitor.

100/130 MIL Spec, low lead, aviation gasoline (BLUE)

Runway information:
05/23 - 3596 x 98 feet< - >1096 x 30 meters
14/32 - 5906 x 98 feet< - >1800 x 30 meters

Recent METARs:
YABA 142000Z AUTO 08005KT 9999 // NCD 10/10 Q1018
YABA 142100Z AUTO 07009KT 9999 // OVC008 13/12 Q1018
YABA 142130Z AUTO 06008KT 9999 // OVC008 13/12 Q1018

Airport on the map: